Time;durP1;ratioP1;P1;durP2;ratioP2;P2;SDS_P1;SDS_P2;PMS_P1;PMS_P2;Temp;Humidity;BMP_temperature;BMP_pressure;BME280_temperature;BME280_humidity;BME280_pressure;Samples;Min_cycle;Max_cycle;Signal;HPM_P1;HPM_P2
2021/01/07 00:02:26;;;;;;;;;;;;;;;3.25;81.43;97428.72;1632211;87;25291;-88
2021/01/07 00:05:12;;;;;;;;;;;;;;;3.29;81.41;97432.79;1617691;88;21973;-88
2021/01/07 00:07:58;;;;;;;;;;;;;;;3.33;81.41;97426.52;1616356;87;27097;-88
2021/01/07 00:10:44;;;;;;;;;;;;;;;3.31;81.39;97420.62;1631542;87;25440;-89
2021/01/07 00:13:30;;;;;;;;;;;;;;;3.33;81.39;97420.88;1617004;87;20385;-88
2021/01/07 00:16:17;;;;;;;;;;;;;;;3.27;81.40;97415.25;1599438;88;39482;-87
2021/01/07 00:19:03;;;;;;;;;;;;;;;3.20;81.37;97415.22;1628824;87;22156;-88
2021/01/07 00:21:53;;;;;;;;;;;;;;;3.12;81.35;97416.09;1632443;87;26133;-88
2021/01/07 00:24:39;;;;;;;;;;;;;;;3.07;81.34;97420.70;1630148;86;24772;-88
2021/01/07 00:27:26;;;;;;;;;;;;;;;2.97;81.30;97426.84;1600647;89;20612;-87
2021/01/07 00:30:13;;;;;;;;;;;;;;;2.89;81.27;97426.45;1610336;88;25197;-87
2021/01/07 00:32:59;;;;;;;;;;;;;;;2.82;81.24;97440.16;1624967;88;22146;-88
2021/01/07 00:35:45;;;;;;;;;;;;;;;2.83;81.22;97439.70;1621290;88;26143;-87
2021/01/07 00:38:35;;;;;;;;;;;;;;;2.85;81.19;97439.98;1600791;89;24829;-87
2021/01/07 00:41:21;;;;;;;;;;;;;;;2.90;81.17;97439.27;1609407;88;20559;-88
2021/01/07 00:44:08;;;;;;;;;;;;;;;2.83;81.18;97442.29;1600485;89;25146;-88
2021/01/07 00:46:54;;;;;;;;;;;;;;;2.91;81.19;97438.81;1609346;88;22109;-88
2021/01/07 00:49:40;;;;;;;;;;;;;;;3.08;81.20;97446.92;1600986;88;26913;-88
2021/01/07 00:52:26;;;;;;;;;;;;;;;3.17;81.18;97436.89;1613292;88;24640;-88
2021/01/07 00:55:12;;;;;;;;;;;;;;;3.24;81.21;97443.39;1628594;87;20532;-90
2021/01/07 00:57:57;;;;;;;;;;;;;;;3.27;81.23;97439.81;1590743;89;25209;-88
2021/01/07 01:00:44;;;;;;;;;;;;;;;3.32;81.25;97439.93;1618943;88;21340;-89
2021/01/07 01:03:30;;;;;;;;;;;;;;;3.45;81.25;97432.28;1602326;88;25353;-89
2021/01/07 01:06:16;;;;;;;;;;;;;;;3.48;81.25;97433.42;1607904;88;25559;-90
2021/01/07 01:09:02;;;;;;;;;;;;;;;3.48;81.27;97444.22;1593377;88;20718;-88
2021/01/07 01:14:54;;;;;;;;;;;;;;;3.45;81.27;97443.92;1692200;84;22385;-88
2021/01/07 01:17:45;;;;;;;;;;;;;;;3.41;81.26;97443.73;1673195;84;26166;-87
2021/01/07 01:20:31;;;;;;;;;;;;;;;3.40;81.25;97443.36;1681285;84;24800;-88
2021/01/07 01:23:18;;;;;;;;;;;;;;;3.40;81.24;97442.06;1683204;83;20583;-88
2021/01/07 01:26:04;;;;;;;;;;;;;;;3.35;81.22;97447.95;1682972;85;25105;-88
2021/01/07 01:28:50;;;;;;;;;;;;;;;3.29;81.21;97446.55;1682746;85;22267;-88
2021/01/07 01:31:37;;;;;;;;;;;;;;;3.25;81.18;97451.53;1677508;85;26111;-87
2021/01/07 01:34:23;;;;;;;;;;;;;;;3.18;81.14;97446.77;1683556;85;25034;-88
2021/01/07 01:37:10;;;;;;;;;;;;;;;3.15;81.14;97444.38;1696623;84;20538;-88
2021/01/07 01:39:55;;;;;;;;;;;;;;;3.13;81.09;97443.62;1666989;85;25284;-88
2021/01/07 01:42:41;;;;;;;;;;;;;;;3.11;81.06;97444.98;1661308;85;22321;-88
2021/01/07 01:45:29;;;;;;;;;;;;;;;3.11;81.04;97441.59;1677409;85;26737;-90
2021/01/07 01:48:15;;;;;;;;;;;;;;;3.04;81.03;97440.27;1680663;85;24748;-90
2021/01/07 01:51:01;;;;;;;;;;;;;;;2.97;81.01;97438.93;1681242;83;20406;-89
2021/01/07 01:53:47;;;;;;;;;;;;;;;2.94;80.97;97433.03;1712124;82;24986;-89
2021/01/07 01:56:33;;;;;;;;;;;;;;;2.94;80.98;97433.03;1702888;82;22099;-89
2021/01/07 01:59:19;;;;;;;;;;;;;;;2.88;80.97;97428.20;1712676;82;26375;-90
2021/01/07 02:02:05;;;;;;;;;;;;;;;2.87;80.96;97432.98;1702101;84;24605;-90
2021/01/07 02:04:51;;;;;;;;;;;;;;;2.91;80.92;97429.30;1711771;82;20321;-89
2021/01/07 02:07:38;;;;;;;;;;;;;;;2.94;80.92;97426.57;1663417;85;25289;-90
2021/01/07 02:10:23;;;;;;;;;;;;;;;2.93;80.91;97423.61;1683101;83;22176;-89
2021/01/07 02:13:09;;;;;;;;;;;;;;;2.94;80.91;97427.86;1684485;84;27038;-89
2021/01/07 02:15:57;;;;;;;;;;;;;;;2.95;80.89;97421.75;1710260;82;24853;-89
2021/01/07 02:18:43;;;;;;;;;;;;;;;2.94;80.90;97425.28;1708790;83;20337;-90
2021/01/07 02:21:30;;;;;;;;;;;;;;;2.94;80.92;97426.57;1709303;82;25152;-89
2021/01/07 02:24:21;;;;;;;;;;;;;;;2.90;80.91;97419.88;1706825;83;22150;-89
2021/01/07 02:27:07;;;;;;;;;;;;;;;2.95;80.92;97419.17;1687990;84;26307;-89
2021/01/07 02:29:55;;;;;;;;;;;;;;;2.93;80.92;97427.94;1713235;83;24583;-89
2021/01/07 02:32:41;;;;;;;;;;;;;;;2.95;80.93;97424.34;1713732;82;20278;-90
2021/01/07 02:35:28;;;;;;;;;;;;;;;2.87;80.95;97432.15;1712100;82;25126;-90
2021/01/07 02:38:14;;;;;;;;;;;;;;;2.81;80.92;97439.78;1714200;82;22981;-91
2021/01/07 02:40:59;;;;;;;;;;;;;;;2.79;80.91;97440.77;1713401;82;27006;-89
2021/01/07 02:43:46;;;;;;;;;;;;;;;2.71;80.88;97442.49;1708668;83;24622;-89
2021/01/07 02:46:32;;;;;;;;;;;;;;;2.61;80.86;97443.91;1715153;82;20223;-90
2021/01/07 02:49:18;;;;;;;;;;;;;;;2.49;80.83;97445.85;1713756;82;25295;-89
2021/01/07 02:52:04;;;;;;;;;;;;;;;2.37;80.79;97449.91;1713293;82;22199;-90
2021/01/07 02:54:50;;;;;;;;;;;;;;;2.29;80.75;97452.53;1711239;82;27051;-90
2021/01/07 02:57:36;;;;;;;;;;;;;;;2.20;80.72;97451.70;1702909;83;24593;-90
2021/01/07 03:00:22;;;;;;;;;;;;;;;2.14;80.71;97455.89;1687183;84;20297;-90
2021/01/07 03:03:08;;;;;;;;;;;;;;;2.07;80.67;97460.07;1711950;83;25206;-90
2021/01/07 03:05:55;;;;;;;;;;;;;;;2.02;80.66;97460.77;1708281;82;22921;-90
2021/01/07 03:08:41;;;;;;;;;;;;;;;1.93;80.67;97459.12;1715400;82;26133;-89
2021/01/07 03:11:27;;;;;;;;;;;;;;;1.85;80.65;97463.85;1702362;84;24685;-90
2021/01/07 03:14:12;;;;;;;;;;;;;;;1.78;80.65;97456.88;1684636;84;20243;-89
2021/01/07 03:16:59;;;;;;;;;;;;;;;1.72;80.64;97455.89;1676400;84;25123;-90
2021/01/07 03:19:47;;;;;;;;;;;;;;;1.68;80.65;97456.95;1669962;85;21313;-89
2021/01/07 03:22:33;;;;;;;;;;;;;;;1.62;80.65;97458.55;1709689;83;26244;-89
2021/01/07 03:25:20;;;;;;;;;;;;;;;1.60;80.66;97460.36;1671496;85;24692;-89
2021/01/07 03:28:06;;;;;;;;;;;;;;;1.58;80.69;97461.72;1697432;82;20531;-89
2021/01/07 03:30:52;;;;;;;;;;;;;;;1.59;80.71;97465.13;1689726;84;26002;-89
2021/01/07 03:33:38;;;;;;;;;;;;;;;1.59;80.74;97462.55;1671546;85;22237;-90
2021/01/07 03:36:27;;;;;;;;;;;;;;;1.61;80.76;97468.03;1681853;85;26124;-89
2021/01/07 03:39:13;;;;;;;;;;;;;;;1.63;80.81;97470.54;1686401;84;25429;-89
2021/01/07 03:42:03;;;;;;;;;;;;;;;1.64;80.84;97469.15;1712159;83;20462;-89
2021/01/07 03:44:49;;;;;;;;;;;;;;;1.67;80.87;97466.89;1709617;82;25231;-89
2021/01/07 03:47:36;;;;;;;;;;;;;;;1.73;80.92;97474.77;1710995;82;22166;-89
2021/01/07 03:50:22;;;;;;;;;;;;;;;1.70;80.95;97470.59;1709865;84;26220;-89
2021/01/07 03:53:08;;;;;;;;;;;;;;;1.71;80.96;97468.39;1711488;83;24625;-89
2021/01/07 03:55:54;;;;;;;;;;;;;;;1.73;81.01;97467.04;1711578;82;20672;-89
2021/01/07 03:58:44;;;;;;;;;;;;;;;1.73;81.04;97468.33;1712062;84;25283;-89
2021/01/07 04:01:32;;;;;;;;;;;;;;;1.73;81.06;97467.04;1711895;82;22205;-89
2021/01/07 04:04:18;;;;;;;;;;;;;;;1.74;81.06;97468.72;1712360;82;27174;-89
2021/01/07 04:07:05;;;;;;;;;;;;;;;1.74;81.11;97470.00;1713373;82;24746;-89
2021/01/07 04:09:50;;;;;;;;;;;;;;;1.71;81.11;97471.43;1711237;83;20529;-88
2021/01/07 04:12:36;;;;;;;;;;;;;;;1.71;81.15;97470.14;1712143;83;26208;-88
2021/01/07 04:15:23;;;;;;;;;;;;;;;1.69;81.15;97471.05;1708294;82;22174;-88
2021/01/07 04:18:09;;;;;;;;;;;;;;;1.70;81.19;97465.44;1712101;83;27003;-88
2021/01/07 04:20:55;;;;;;;;;;;;;;;1.69;81.21;97467.17;1712757;82;24644;-89
2021/01/07 04:23:41;;;;;;;;;;;;;;;1.64;81.23;97473.47;1711347;83;20262;-88
2021/01/07 04:26:27;;;;;;;;;;;;;;;1.60;81.25;97474.54;1709926;84;25196;-88
2021/01/07 04:29:12;;;;;;;;;;;;;;;1.58;81.25;97476.38;1713777;82;22149;-89
2021/01/07 04:31:58;;;;;;;;;;;;;;;1.56;81.28;97470.00;1710982;84;26217;-88
2021/01/07 04:34:44;;;;;;;;;;;;;;;1.55;81.30;97470.06;1714377;82;25556;-88
2021/01/07 04:37:31;;;;;;;;;;;;;;;1.54;81.31;97482.57;1709974;83;20267;-89
2021/01/07 04:40:17;;;;;;;;;;;;;;;1.52;81.32;97476.23;1711948;84;25172;-89
2021/01/07 04:43:03;;;;;;;;;;;;;;;1.51;81.35;97478.42;1711741;84;22170;-88
2021/01/07 04:45:49;;;;;;;;;;;;;;;1.50;81.35;97479.77;1683416;84;26113;-88
2021/01/07 04:48:36;;;;;;;;;;;;;;;1.48;81.38;97476.42;1706907;82;24713;-88
2021/01/07 04:51:23;;;;;;;;;;;;;;;1.46;81.39;97477.81;1711516;83;20298;-88
2021/01/07 04:54:09;;;;;;;;;;;;;;;1.42;81.41;97485.77;1708597;84;25200;-88
2021/01/07 04:56:56;;;;;;;;;;;;;;;1.34;81.43;97489.16;1711565;82;22142;-88
2021/01/07 04:59:42;;;;;;;;;;;;;;;1.28;81.44;97485.58;1712297;82;26127;-88
2021/01/07 05:02:28;;;;;;;;;;;;;;;1.26;81.45;97489.52;1711777;84;25570;-88
2021/01/07 05:05:15;;;;;;;;;;;;;;;1.25;81.46;97491.73;1710031;83;20258;-88
2021/01/07 05:08:01;;;;;;;;;;;;;;;1.22;81.49;97491.41;1711674;83;25348;-89
2021/01/07 05:10:48;;;;;;;;;;;;;;;1.22;81.49;97491.86;1711189;83;22833;-89
2021/01/07 05:13:34;;;;;;;;;;;;;;;1.21;81.51;97489.73;1711905;83;26132;-90
2021/01/07 05:16:20;;;;;;;;;;;;;;;1.21;81.51;97486.33;1712145;84;25469;-89
2021/01/07 05:19:06;;;;;;;;;;;;;;;1.22;81.53;97495.28;1711680;83;20539;-89
2021/01/07 05:21:53;;;;;;;;;;;;;;;1.23;81.56;97490.96;1711924;84;25143;-89
2021/01/07 05:24:39;;;;;;;;;;;;;;;1.20;81.57;97493.22;1712634;82;22358;-89
2021/01/07 05:27:25;;;;;;;;;;;;;;;1.17;81.58;97497.70;1712277;83;26120;-88
2021/01/07 05:30:11;;;;;;;;;;;;;;;1.17;81.60;97497.70;1711736;82;24623;-89
2021/01/07 05:32:57;;;;;;;;;;;;;;;1.16;81.62;97504.59;1710040;83;20333;-89
2021/01/07 05:35:43;;;;;;;;;;;;;;;1.17;81.63;97512.70;1711074;82;25127;-89
2021/01/07 05:38:34;;;;;;;;;;;;;;;1.18;81.64;97504.07;1707961;84;22342;-89
2021/01/07 05:41:20;;;;;;;;;;;;;;;1.14;81.66;97512.86;1683126;84;26201;-89
2021/01/07 05:44:06;;;;;;;;;;;;;;;1.10;81.67;97513.89;1703359;82;24634;-89
2021/01/07 05:46:53;;;;;;;;;;;;;;;1.09;81.68;97516.56;1710375;82;20317;-89
2021/01/07 05:49:40;;;;;;;;;;;;;;;1.07;81.70;97517.91;1711939;83;25126;-89
2021/01/07 05:52:26;;;;;;;;;;;;;;;1.04;81.71;97519.32;1711936;82;22259;-89
2021/01/07 05:55:12;;;;;;;;;;;;;;;1.04;81.73;97518.03;1712411;83;26144;-89
2021/01/07 05:57:59;;;;;;;;;;;;;;;1.07;81.73;97518.36;1712049;84;24697;-89
2021/01/07 06:00:45;;;;;;;;;;;;;;;1.08;81.75;97519.59;1711493;82;20395;-89
2021/01/07 06:03:32;;;;;;;;;;;;;;;1.11;81.79;97525.87;1710299;83;25283;-88
2021/01/07 06:06:18;;;;;;;;;;;;;;;1.08;81.80;97530.34;1711372;82;23056;-89
2021/01/07 06:09:04;;;;;;;;;;;;;;;1.04;81.83;97530.08;1709014;84;26282;-88
2021/01/07 06:11:51;;;;;;;;;;;;;;;1.00;81.82;97534.55;1711974;83;24648;-89
2021/01/07 06:14:37;;;;;;;;;;;;;;;0.99;81.83;97535.45;1712236;82;20572;-89
2021/01/07 06:17:23;;;;;;;;;;;;;;;1.00;81.84;97536.28;1706535;83;25248;-89
2021/01/07 06:20:09;;;;;;;;;;;;;;;1.01;81.86;97543.11;1711208;83;22052;-88
2021/01/07 06:22:55;;;;;;;;;;;;;;;1.04;81.87;97538.64;1713302;83;26189;-88
2021/01/07 06:25:42;;;;;;;;;;;;;;;1.07;81.88;97542.83;1708855;83;24766;-89
2021/01/07 06:28:32;;;;;;;;;;;;;;;1.08;81.91;97542.77;1713119;83;20234;-89
2021/01/07 06:31:18;;;;;;;;;;;;;;;1.13;81.92;97548.99;1703419;83;25284;-88
2021/01/07 06:34:07;;;;;;;;;;;;;;;1.12;81.94;97549.45;1709069;83;22127;-88
2021/01/07 06:36:54;;;;;;;;;;;;;;;1.08;81.96;97550.95;1701396;82;26155;-88
2021/01/07 06:39:40;;;;;;;;;;;;;;;1.05;81.97;97559.64;1702291;82;24524;-88
2021/01/07 06:42:26;;;;;;;;;;;;;;;1.00;81.98;97564.17;1704384;82;20616;-89
2021/01/07 06:45:13;;;;;;;;;;;;;;;0.94;81.98;97566.19;1689023;84;25187;-90
2021/01/07 06:47:59;;;;;;;;;;;;;;;0.87;81.98;97573.83;1717892;82;22222;-90
2021/01/07 06:50:45;;;;;;;;;;;;;;;0.81;81.97;97570.63;1711803;82;26347;-89
2021/01/07 06:53:32;;;;;;;;;;;;;;;0.77;81.96;97571.64;1715467;82;25540;-88
2021/01/07 06:56:19;;;;;;;;;;;;;;;0.77;81.96;97578.52;1712668;83;20305;-89
2021/01/07 06:59:05;;;;;;;;;;;;;;;0.78;81.95;97581.04;1711727;83;25082;-89
2021/01/07 07:01:52;;;;;;;;;;;;;;;0.84;81.95;97584.64;1710451;82;22151;-89
2021/01/07 07:04:38;;;;;;;;;;;;;;;0.87;81.95;97592.69;1716150;82;26165;-89
2021/01/07 07:07:24;;;;;;;;;;;;;;;0.89;81.96;97596.02;1714017;82;24611;-89
2021/01/07 07:10:10;;;;;;;;;;;;;;;0.89;81.98;97604.19;1706182;83;20530;-90
2021/01/07 07:12:57;;;;;;;;;;;;;;;0.89;81.99;97607.61;1702931;83;25142;-90
2021/01/07 07:15:43;;;;;;;;;;;;;;;0.88;82.01;97611.08;1698910;82;22082;-88
2021/01/07 07:18:29;;;;;;;;;;;;;;;0.88;82.01;97611.08;1671860;84;26223;-89
2021/01/07 07:21:15;;;;;;;;;;;;;;;0.93;82.01;97616.86;1669142;85;25535;-88
2021/01/07 07:24:03;;;;;;;;;;;;;;;0.96;82.02;97618.03;1674933;84;20406;-88
2021/01/07 07:26:50;;;;;;;;;;;;;;;1.01;82.03;97625.55;1668382;85;25410;-89
2021/01/07 07:29:36;;;;;;;;;;;;;;;1.02;82.04;97624.20;1671077;83;22237;-88
2021/01/07 07:32:21;;;;;;;;;;;;;;;1.07;82.05;97631.72;1679162;84;26057;-88
2021/01/07 07:35:08;;;;;;;;;;;;;;;1.15;82.08;97638.19;1675864;83;24717;-88
2021/01/07 07:37:54;;;;;;;;;;;;;;;1.19;82.07;97638.45;1668277;85;20271;-89
2021/01/07 07:40:40;;;;;;;;;;;;;;;1.22;82.12;97643.45;1675222;84;25303;-88
2021/01/07 07:43:26;;;;;;;;;;;;;;;1.24;82.12;97643.39;1675948;85;22162;-88
2021/01/07 07:46:12;;;;;;;;;;;;;;;1.24;82.14;97648.55;1668183;85;26201;-89
2021/01/07 07:48:58;;;;;;;;;;;;;;;1.24;82.16;97655.83;1674172;84;24961;-88
2021/01/07 07:51:44;;;;;;;;;;;;;;;1.24;82.14;97655.83;1674113;85;20560;-88
2021/01/07 07:54:30;;;;;;;;;;;;;;;1.20;82.15;97659.42;1680125;84;25190;-88
2021/01/07 07:57:18;;;;;;;;;;;;;;;1.20;82.13;97664.58;1673334;84;22170;-88
2021/01/07 08:00:05;;;;;;;;;;;;;;;1.21;82.12;97662.84;1669873;84;26105;-89
2021/01/07 08:02:54;;;;;;;;;;;;;;;1.24;82.11;97668.72;1677699;85;24585;-89
2021/01/07 08:05:41;;;;;;;;;;;;;;;1.23;82.11;97669.61;1713559;83;20558;-89
2021/01/07 08:08:27;;;;;;;;;;;;;;;1.25;82.09;97678.09;1706012;83;25255;-88
2021/01/07 08:11:13;;;;;;;;;;;;;;;1.24;82.09;97680.31;1667759;85;22096;-88
2021/01/07 08:13:59;;;;;;;;;;;;;;;1.20;82.09;97683.91;1697964;83;26169;-88
2021/01/07 08:16:49;;;;;;;;;;;;;;;1.20;82.07;97686.97;1695156;83;24696;-88
2021/01/07 08:19:35;;;;;;;;;;;;;;;1.16;82.07;97691.39;1684748;84;20532;-89
2021/01/07 08:22:22;;;;;;;;;;;;;;;1.18;82.04;97692.17;1707357;84;25090;-89
2021/01/07 08:25:09;;;;;;;;;;;;;;;1.20;82.04;97689.54;1707871;83;22222;-88
2021/01/07 08:27:56;;;;;;;;;;;;;;;1.22;82.02;97694.99;1707277;83;26234;-90
2021/01/07 08:30:42;;;;;;;;;;;;;;;1.20;82.03;97695.98;1712191;82;24639;-89
2021/01/07 08:33:28;;;;;;;;;;;;;;;1.20;82.02;97694.70;1712986;82;20313;-90
2021/01/07 08:36:14;;;;;;;;;;;;;;;1.24;82.01;97698.80;1706428;82;25134;-88
2021/01/07 08:39:00;;;;;;;;;;;;;;;1.28;82.01;97702.06;1707501;84;22292;-88
2021/01/07 08:41:34;;;;;;;;;;;;;;;1.32;82.01;97703.59;1706750;83;26261;-88
2021/01/07 08:44:21;;;;;;;;;;;;;;;1.34;82.00;97706.50;1707349;84;24717;-88
2021/01/07 08:47:07;;;;;;;;;;;;;;;1.38;82.01;97708.03;1708145;82;20259;-87
2021/01/07 08:49:54;;;;;;;;;;;;;;;1.40;82.02;97707.52;1703934;84;25100;-88
2021/01/07 08:52:43;;;;;;;;;;;;;;;1.42;82.01;97710.84;1708825;82;22139;-88
2021/01/07 08:55:29;;;;;;;;;;;;;;;1.46;82.03;97715.43;1707614;82;26147;-88
2021/01/07 08:58:15;;;;;;;;;;;;;;;1.47;82.02;97718.40;1707554;82;24872;-88
2021/01/07 09:01:01;;;;;;;;;;;;;;;1.47;82.02;97723.11;1706170;83;20303;-89
2021/01/07 09:03:47;;;;;;;;;;;;;;;1.53;82.00;97721.52;1710144;82;25090;-90
2021/01/07 09:06:33;;;;;;;;;;;;;;;1.55;82.01;97724.03;1707827;83;22237;-91
2021/01/07 09:09:19;;;;;;;;;;;;;;;1.57;82.01;97729.97;1706833;83;26183;-89
2021/01/07 09:12:06;;;;;;;;;;;;;;;1.59;81.98;97728.98;1707363;83;24589;-89
2021/01/07 09:14:54;;;;;;;;;;;;;;;1.59;81.99;97730.72;1707452;84;20207;-89
2021/01/07 09:17:41;;;;;;;;;;;;;;;1.58;81.98;97735.03;1708669;83;26082;-88
2021/01/07 09:20:28;;;;;;;;;;;;;;;1.60;81.96;97732.39;1662576;85;22145;-88
2021/01/07 09:23:15;;;;;;;;;;;;;;;1.62;81.93;97733.17;1674569;84;26938;-89
2021/01/07 09:26:02;;;;;;;;;;;;;;;1.63;81.92;97738.27;1693768;83;24598;-89
2021/01/07 09:28:48;;;;;;;;;;;;;;;1.67;81.92;97737.22;1698272;82;20385;-88
2021/01/07 09:31:34;;;;;;;;;;;;;;;1.70;81.90;97732.36;1678053;85;25109;-90
2021/01/07 09:34:20;;;;;;;;;;;;;;;1.72;81.89;97731.84;1679085;84;22206;-90
2021/01/07 09:37:08;;;;;;;;;;;;;;;1.78;81.86;97726.86;1665114;85;26141;-90
2021/01/07 09:39:55;;;;;;;;;;;;;;;1.79;81.89;97732.41;1656475;85;24433;-89
2021/01/07 09:42:43;;;;;;;;;;;;;;;1.74;81.88;97730.49;1672036;84;20591;-90
2021/01/07 09:45:30;;;;;;;;;;;;;;;1.76;81.87;97735.11;1670184;85;25979;-89
2021/01/07 09:48:16;;;;;;;;;;;;;;;1.75;81.84;97732.98;1669308;85;22069;-91
2021/01/07 09:51:04;;;;;;;;;;;;;;;1.69;81.81;97735.38;1669804;85;26341;-90
2021/01/07 09:53:53;;;;;;;;;;;;;;;1.70;81.77;97731.06;1671074;84;25482;-91
2021/01/07 09:56:39;;;;;;;;;;;;;;;1.68;81.75;97731.16;1672657;84;20332;-90
2021/01/07 09:59:29;;;;;;;;;;;;;;;1.74;81.72;97731.78;1670677;85;24634;-89
2021/01/07 10:02:15;;;;;;;;;;;;;;;1.82;81.70;97731.80;1665483;85;23057;-89
2021/01/07 10:05:03;;;;;;;;;;;;;;;1.84;81.67;97726.12;1672423;84;27077;-88
2021/01/07 10:07:49;;;;;;;;;;;;;;;1.88;81.67;97721.66;1677301;84;25461;-89
2021/01/07 10:10:36;;;;;;;;;;;;;;;1.86;81.67;97721.71;1668385;84;20370;-89
2021/01/07 10:13:22;;;;;;;;;;;;;;;1.85;81.66;97724.39;1668011;85;25336;-88
2021/01/07 10:16:08;;;;;;;;;;;;;;;1.86;81.66;97717.84;1679399;84;22444;-89
2021/01/07 10:18:54;;;;;;;;;;;;;;;1.90;81.62;97712.95;1699675;83;26159;-88
2021/01/07 10:21:40;;;;;;;;;;;;;;;2.00;81.63;97712.89;1699176;83;24612;-89
2021/01/07 10:24:26;;;;;;;;;;;;;;;2.12;81.63;97711.93;1700628;83;20557;-88
2021/01/07 10:27:14;;;;;;;;;;;;;;;2.24;81.61;97712.16;1701582;83;25143;-89
2021/01/07 10:30:00;;;;;;;;;;;;;;;2.31;81.61;97715.29;1713541;82;22143;-88
2021/01/07 10:32:47;;;;;;;;;;;;;;;2.40;81.61;97714.37;1713219;82;26097;-88
2021/01/07 10:35:35;;;;;;;;;;;;;;;2.48;81.62;97715.31;1704410;83;24597;-88
2021/01/07 10:38:23;;;;;;;;;;;;;;;2.55;81.61;97711.52;1704502;83;20404;-88
2021/01/07 10:41:09;;;;;;;;;;;;;;;2.63;81.59;97714.55;1685963;83;25096;-89
2021/01/07 10:43:55;;;;;;;;;;;;;;;2.64;81.60;97709.77;1690377;84;22144;-89
2021/01/07 10:46:42;;;;;;;;;;;;;;;2.64;81.57;97708.92;1711887;83;26140;-89
2021/01/07 10:49:28;;;;;;;;;;;;;;;2.66;81.53;97711.83;1709081;83;25564;-88
2021/01/07 10:52:16;;;;;;;;;;;;;;;2.67;81.50;97712.22;1716817;82;20279;-89
2021/01/07 10:55:04;;;;;;;;;;;;;;;2.64;81.47;97711.06;1705167;83;25329;-88
2021/01/07 10:57:49;;;;;;;;;;;;;;;2.62;81.42;97705.13;1714763;83;22103;-88
2021/01/07 11:00:37;;;;;;;;;;;;;;;2.64;81.39;97705.89;1706154;82;26230;-88
2021/01/07 11:03:23;;;;;;;;;;;;;;;2.66;81.31;97701.50;1710742;82;24609;-89
2021/01/07 11:06:09;;;;;;;;;;;;;;;2.63;81.30;97699.50;1701473;83;20528;-88
2021/01/07 11:08:55;;;;;;;;;;;;;;;2.48;81.25;97706.27;1707100;83;25127;-89
2021/01/07 11:11:45;;;;;;;;;;;;;;;2.44;81.19;97709.47;1701585;84;22888;-89
2021/01/07 11:14:33;;;;;;;;;;;;;;;2.41;81.12;97704.44;1706327;82;26117;-89
2021/01/07 11:17:21;;;;;;;;;;;;;;;2.40;81.07;97704.53;1665967;84;25575;-89
2021/01/07 11:20:07;;;;;;;;;;;;;;;2.42;81.02;97700.11;1690917;84;20304;-88
2021/01/07 11:22:53;;;;;;;;;;;;;;;2.40;80.98;97701.95;1699029;83;25105;-89
2021/01/07 11:25:39;;;;;;;;;;;;;;;2.33;80.93;97697.98;1714548;82;22132;-88
2021/01/07 11:28:25;;;;;;;;;;;;;;;2.27;80.88;97698.28;1712408;82;26134;-89
2021/01/07 11:31:11;;;;;;;;;;;;;;;2.20;80.84;97699.48;1713246;83;24672;-89
2021/01/07 11:33:58;;;;;;;;;;;;;;;2.17;80.79;97699.19;1711925;83;20274;-89
2021/01/07 11:36:44;;;;;;;;;;;;;;;2.17;80.74;97699.64;1687496;83;25061;-88
2021/01/07 11:39:30;;;;;;;;;;;;;;;2.14;80.70;97707.06;1710250;82;22841;-88
2021/01/07 11:42:17;;;;;;;;;;;;;;;2.08;80.64;97711.22;1710325;82;26112;-89
2021/01/07 11:45:03;;;;;;;;;;;;;;;2.05;80.59;97708.80;1708474;83;25491;-89
2021/01/07 11:47:51;;;;;;;;;;;;;;;2.05;80.53;97709.64;1691736;84;20543;-88
2021/01/07 11:50:41;;;;;;;;;;;;;;;2.05;80.46;97710.09;1690792;84;25072;-88
2021/01/07 11:53:28;;;;;;;;;;;;;;;2.08;80.41;97712.52;1689934;83;22311;-88
2021/01/07 11:56:14;;;;;;;;;;;;;;;2.05;80.36;97701.06;1712233;82;26133;-88
2021/01/07 11:59:00;;;;;;;;;;;;;;;2.01;80.31;97695.67;1712405;82;24689;-88
2021/01/07 12:01:48;;;;;;;;;;;;;;;1.98;80.28;97699.22;1717403;82;20302;-89
2021/01/07 12:04:33;;;;;;;;;;;;;;;1.90;80.22;97693.59;1714162;82;25969;-89
2021/01/07 12:07:20;;;;;;;;;;;;;;;1.86;80.14;97692.05;1716902;82;22122;-89
2021/01/07 12:10:06;;;;;;;;;;;;;;;1.84;80.10;97696.46;1711734;83;26129;-89
2021/01/07 12:12:53;;;;;;;;;;;;;;;1.88;80.04;97694.56;1707748;82;24673;-89
2021/01/07 12:15:41;;;;;;;;;;;;;;;1.88;79.99;97696.69;1712660;82;20279;-90
2021/01/07 12:18:28;;;;;;;;;;;;;;;1.91;79.94;97695.24;1691063;82;24204;-90
2021/01/07 12:21:14;;;;;;;;;;;;;;;1.91;79.93;97696.53;1673641;84;22098;-89
2021/01/07 12:24:00;;;;;;;;;;;;;;;1.90;79.89;97700.05;1713846;83;26134;-90
2021/01/07 12:26:49;;;;;;;;;;;;;;;1.92;79.85;97703.83;1714381;83;24594;-90
2021/01/07 12:29:34;;;;;;;;;;;;;;;1.94;79.81;97695.56;1714314;83;20254;-90
2021/01/07 12:32:21;;;;;;;;;;;;;;;2.00;79.76;97696.58;1714235;83;26041;-89
2021/01/07 12:35:10;;;;;;;;;;;;;;;2.04;79.74;97698.93;1714753;83;22115;-90
2021/01/07 12:37:56;;;;;;;;;;;;;;;2.03;79.71;97697.70;1714588;82;27133;-90
2021/01/07 12:40:44;;;;;;;;;;;;;;;2.02;79.66;97701.19;1714777;82;25521;-90
2021/01/07 12:43:31;;;;;;;;;;;;;;;2.03;79.61;97703.70;1693716;84;20556;-90
2021/01/07 12:46:18;;;;;;;;;;;;;;;2.03;79.57;97696.41;1714512;83;25346;-89
2021/01/07 12:49:04;;;;;;;;;;;;;;;1.99;79.52;97690.57;1713891;83;22173;-90
2021/01/07 12:51:51;;;;;;;;;;;;;;;1.94;79.48;97692.54;1714112;83;26131;-90
2021/01/07 12:54:40;;;;;;;;;;;;;;;1.92;79.40;97693.05;1715396;82;24641;-90
2021/01/07 12:57:26;;;;;;;;;;;;;;;1.86;79.34;97694.63;1711063;82;20640;-90
2021/01/07 13:00:13;;;;;;;;;;;;;;;1.80;79.27;97698.78;1707857;83;25822;-91
2021/01/07 13:03:04;;;;;;;;;;;;;;;1.78;79.20;97704.94;1711271;83;22151;-90
2021/01/07 13:05:50;;;;;;;;;;;;;;;1.77;79.12;97700.67;1687307;84;26120;-90
2021/01/07 13:08:37;;;;;;;;;;;;;;;1.81;79.06;97712.06;1712257;83;25474;-90
2021/01/07 13:11:24;;;;;;;;;;;;;;;1.85;79.01;97711.04;1713762;83;20278;-90
2021/01/07 13:14:11;;;;;;;;;;;;;;;1.87;78.97;97710.49;1713613;83;25137;-90
2021/01/07 13:16:57;;;;;;;;;;;;;;;1.88;78.93;97704.44;1714484;82;23008;-88
2021/01/07 13:19:44;;;;;;;;;;;;;;;1.86;78.88;97712.69;1714042;83;26105;-89
2021/01/07 13:22:30;;;;;;;;;;;;;;;1.83;78.84;97706.84;1710269;83;24703;-89
2021/01/07 13:25:16;;;;;;;;;;;;;;;1.80;78.80;97711.67;1711239;83;20266;-89
2021/01/07 13:28:02;;;;;;;;;;;;;;;1.77;78.74;97714.41;1708664;83;25825;-90
2021/01/07 13:30:48;;;;;;;;;;;;;;;1.74;78.68;97723.59;1672079;84;21389;-90
2021/01/07 13:33:34;;;;;;;;;;;;;;;1.68;78.64;97719.55;1698852;84;27202;-90
2021/01/07 13:36:23;;;;;;;;;;;;;;;1.63;78.57;97716.80;1698201;83;25442;-89
2021/01/07 13:39:09;;;;;;;;;;;;;;;1.61;78.54;97722.47;1669934;84;20305;-89
2021/01/07 13:41:55;;;;;;;;;;;;;;;1.55;78.49;97720.16;1676381;84;25187;-89
2021/01/07 13:44:41;;;;;;;;;;;;;;;1.52;78.42;97721.16;1663540;85;22138;-89
2021/01/07 13:47:28;;;;;;;;;;;;;;;1.55;78.37;97728.73;1692366;84;26312;-89
2021/01/07 13:50:16;;;;;;;;;;;;;;;1.54;78.34;97725.77;1712621;83;24638;-89
2021/01/07 13:53:03;;;;;;;;;;;;;;;1.52;78.31;97732.76;1691796;84;20310;-89
2021/01/07 13:55:49;;;;;;;;;;;;;;;1.52;78.29;97734.50;1712197;82;26241;-89
2021/01/07 13:58:35;;;;;;;;;;;;;;;1.46;78.25;97734.32;1695680;84;22154;-90
2021/01/07 14:01:21;;;;;;;;;;;;;;;1.44;78.22;97737.86;1713308;83;26278;-89
2021/01/07 14:04:08;;;;;;;;;;;;;;;1.42;78.19;97730.66;1675369;85;24875;-89
2021/01/07 14:06:54;;;;;;;;;;;;;;;1.46;78.17;97730.90;1714432;83;20342;-90
2021/01/07 14:09:41;;;;;;;;;;;;;;;1.46;78.17;97738.63;1713060;83;25134;-89
2021/01/07 14:12:27;;;;;;;;;;;;;;;1.44;78.14;97733.53;1714302;83;22220;-88
2021/01/07 14:15:13;;;;;;;;;;;;;;;1.45;78.15;97729.22;1714374;82;26264;-90
2021/01/07 14:17:59;;;;;;;;;;;;;;;1.44;78.13;97737.86;1714086;82;24710;-90
2021/01/07 14:20:45;;;;;;;;;;;;;;;1.41;78.15;97734.14;1714255;82;20270;-88
2021/01/07 14:23:31;;;;;;;;;;;;;;;1.37;78.13;97731.28;1714606;83;25393;-90
2021/01/07 14:26:17;;;;;;;;;;;;;;;1.38;78.11;97727.81;1714081;83;22084;-90
2021/01/07 14:29:03;;;;;;;;;;;;;;;1.38;78.10;97728.65;1714840;83;26050;-89
2021/01/07 14:31:55;;;;;;;;;;;;;;;1.38;78.12;97728.65;1714586;83;24576;-89
2021/01/07 14:34:43;;;;;;;;;;;;;;;1.37;78.13;97720.53;1714847;83;20349;-89
2021/01/07 14:37:29;;;;;;;;;;;;;;;1.36;78.12;97721.91;1714167;83;25086;-89
2021/01/07 14:40:15;;;;;;;;;;;;;;;1.38;78.13;97723.95;1714628;83;22303;-88
2021/01/07 14:43:02;;;;;;;;;;;;;;;1.37;78.13;97724.84;1714772;83;26137;-89